Tiempo atmosférico en la estación meteorológica de Soba, Alto Miera, Cantabria (695 m.)



Fecha
DESCASC
Temp. máxima en grados centígrados (hora)
DESCASC
Temp. mínima en grados centígrados (hora)
DESCASC
Temp. media en grados centígrados
DESCASC
Racha de viento máxima en m/sg (hora)
DESCASC
Velocidad máxima media en intervalos de 10 minutos(hora)
DESCASC
Precipitaciones diarias en mm
DESCASC
Precipitaciones de 00:00 a 06:00 en mm
DESCASC
Precipitaciones de 06:00 a 12:00 en mm
DESCASC
Precipitaciones de 12:00 a 18:00 en mm
DESCASC
Precipitaciones de 18:00 a 24:00 en mm
DESCASC
24-05-2020 -- (--) -- (--) -- -- (--) -- (--) -- 0 0 -- --
23-05-2020 14.8 (17:00) 7.8 (23:59) 11.3 9.17 (23:20) 3.89 (18:40) 4.8 2 2.8 0 0
22-05-2020 19.5 (14:40) 12.2 (07:50) 15.8 5.28 (14:00) 3.61 (15:00) 0.6 0 0 0 0.6
21-05-2020 27.2 (16:50) 9.9 (00:00) 18.6 4.44 (17:10) 3.33 (17:10) 0 0 0 0 0
20-05-2020 25.6 (15:00) 12.5 (00:00) 19.1 6.39 (15:30) 3.61 (15:50) 0 0 0 0 0
19-05-2020 22.6 (18:00) 8.3 (00:00) 15.5 5.56 (15:50) 3.33 (13:00) 0 0 0 0 0
18-05-2020 20.6 (18:00) 7.1 (00:00) 13.9 5.28 (16:50) 3.06 (14:20) 0 0 0 0 0
17-05-2020 -- (--) -- (--) -- -- (--) -- (--) -- -- -- 0 0
16-05-2020 -- (--) -- (--) -- -- (--) -- (--) -- 0 -- 0 --
15-05-2020 9.2 (13:30) 7.1 (00:00) 8.1 -- (--) -- (--) -- 5.8 -- 0 0.2
14-05-2020 11.1 (10:10) 8.1 (00:00) 9.6 6.67 (08:40) 3.33 (17:30) 3.4 0 0 0.2 3.2
13-05-2020 12.8 (14:10) 7.8 (00:00) 10.3 4.44 (16:40) 2.5 (14:30) 4.6 0.2 3.6 0 0.8
12-05-2020 11 (12:50) 7 (00:00) 9 4.17 (13:10) 2.22 (13:00) 1.4 0.4 0.4 0 0.6
11-05-2020 -- (--) -- (--) -- -- (--) -- (--) -- 0.2 -- 0 0
10-05-2020 12.8 (00:00) 9.4 (00:00) 11.1 -- (--) -- (--) -- 6.2 5.4 -- 3.8
09-05-2020 21.3 (13:50) 12.2 (00:00) 16.7 -- (--) -- (--) -- -- 0 0 0
08-05-2020 24.6 (17:20) 14.1 (00:00) 19.4 14.17 (21:50) 6.94 (02:30) 4 0 2.8 0 1.2
07-05-2020 24.1 (18:40) 10.7 (00:00) 17.4 11.67 (22:00) 5 (22:00) 0.2 0 0 0 0.2
06-05-2020 21.3 (16:30) 11.8 (00:00) 16.5 -- (--) -- (--) -- 0 -- 0 0
05-05-2020 21.9 (16:10) 12.7 (00:00) 17.3 11.94 (01:00) 6.11 (03:50) 0 0 0 0 0
04-05-2020 28.7 (13:00) 12.6 (00:00) 20.7 16.67 (16:10) 8.33 (14:50) 0 0 0 0 0
03-05-2020 25.7 (16:30) 10.5 (00:00) 18.1 8.33 (13:40) 3.61 (14:00) 0 0 0 0 0
02-05-2020 21 (13:20) 11.4 (00:00) 16.2 7.22 (16:10) 4.17 (13:50) 0 0 0 0 0
01-05-2020 19.4 (16:30) 13.3 (00:00) 16.3 15.28 (07:00) 5.83 (07:50) 12.6 0 0.2 1.2 11.2
30-04-2020 15.2 (17:20) 10.8 (00:00) 13 17.22 (22:20) 7.5 (22:10) 0 0 0 0 0
29-04-2020 14.3 (18:50) 6.2 (00:00) 10.3 23.33 (21:30) 8.33 (16:10) 0 0 0 0 0
28-04-2020 12.2 (13:30) 6.2 (00:00) 9.2 5.56 (13:40) 3.33 (13:40) 0.4 0.2 0 0.2 0
27-04-2020 12.6 (13:50) 7.5 (00:00) 10.1 6.67 (17:40) 3.61 (17:40) 14.6 6.6 0.4 4.2 3.4
26-04-2020 14.7 (15:40) 10.5 (00:00) 12.6 4.44 (17:10) 2.78 (17:10) 34.4 1.2 0.2 20.6 12.4

Gráficas

Temp. máximas Temp. mínimas Temp. medias Precipitaciones Rachas de viento máximas Velocidades máximas media en intervalos de 10 minutos

Datos horarios

Fecha y hora oficial Temperatura (ºC) Velocidad del viento (km/h) Dirección del viento Racha (km/h) Dirección de racha Precipitación (mm) Presión (hPa) Tendencia (hPa) Humedad (%)
2020-05-25 23:00:00 10.8 0 Calma 4 Este 0 -- -- 90
2020-05-25 22:00:00 12.4 2 Sudeste 8 Norte 0 -- -- 85
2020-05-25 21:00:00 15.5 0 Calma 13 Oeste 0 -- -- 73
2020-05-25 20:00:00 16.9 9 Noroeste 18 Noroeste 0 -- -- 66
2020-05-25 19:00:00 16.5 9 Noroeste 21 Noroeste 0 -- -- 75
2020-05-25 18:00:00 16 10 Noroeste 20 Noroeste 0 -- -- 75
2020-05-25 17:00:00 17.1 11 Noroeste 21 Norte 0 -- -- 78
2020-05-25 16:00:00 16.9 11 Noroeste 28 Noroeste 0 -- -- 82
2020-05-25 15:00:00 18.1 13 Noroeste 27 Noroeste 0 -- -- 69
2020-05-25 14:00:00 18.9 9 Noroeste 22 Noroeste 0 -- -- 64
2020-05-25 13:00:00 19 10 Noroeste 23 Este 0 -- -- 61
2020-05-25 12:00:00 17.5 8 Sudeste 27 Sudeste 0 -- -- 59
2020-05-25 11:00:00 17.3 7 Este 30 Nordeste 0 -- -- 61
2020-05-25 10:00:00 15.6 10 Nordeste 30 Sudeste 0 -- -- 66
2020-05-25 09:00:00 12.8 5 Norte 24 Nordeste 0 -- -- 74
2020-05-25 08:00:00 12.3 9 Norte 31 Nordeste 0 -- -- 73
2020-05-25 07:00:00 11.2 5 Norte 30 Este 0 -- -- 83
2020-05-25 06:00:00 12.4 -- -- -- -- 0 -- -- 74
2020-05-25 05:00:00 -- -- -- -- -- -- -- -- --
2020-05-25 04:00:00 -- -- -- -- -- -- -- -- --
2020-05-25 03:00:00 -- -- -- -- -- -- -- -- --
2020-05-25 02:00:00 -- -- -- -- -- -- -- -- --
2020-05-25 01:00:00 10.2 3 Oeste 8 Noroeste 0 -- -- 97
2020-05-25 00:00:00 10.7 2 Noroeste 9 Noroeste 0 -- -- 95
2020-05-24 23:00:00 12 2 Norte 16 Sudeste 0 -- -- 88
2020-05-24 22:00:00 12 -- -- -- -- -- -- -- --
2020-05-24 21:00:00 12.9 2 Norte 9 Noroeste 0 -- -- 87
2020-05-24 20:00:00 13.7 3 Noroeste 12 Norte 0 -- -- 86
2020-05-24 19:00:00 14.3 7 Noroeste 18 Noroeste 0 -- -- 83
2020-05-24 18:00:00 15.9 9 Noroeste 15 Noroeste 0 -- -- 79
2020-05-24 17:00:00 17.3 9 Noroeste 22 Noroeste 0 -- -- 74
2020-05-24 16:00:00 17.4 13 Noroeste 27 Noroeste 0 -- -- 74
2020-05-24 15:00:00 18 10 Noroeste 19 Noroeste 0 -- -- 65
2020-05-24 14:00:00 17.3 9 Noroeste 15 Noroeste 0 -- -- 65
2020-05-24 13:00:00 16.2 8 Norte 32 Nordeste 0 -- -- 62
2020-05-24 12:00:00 14.6 12 Este 36 Este 0 -- -- 62
2020-05-24 11:00:00 13.1 12 Este 51 Sudeste 0 -- -- 66
2020-05-24 10:00:00 11.8 15 Sudeste 40 Sudeste 0 -- -- 73
2020-05-24 09:00:00 10.6 13 Sudeste 46 Este 0 -- -- 77
2020-05-24 08:00:00 10.3 10 Sudeste 57 Este 0 -- -- 79
2020-05-24 07:00:00 9.6 10 Este 39 Sudeste 0 -- -- 74
2020-05-24 06:00:00 8.3 5 Norte 30 Este 0 -- -- 80
2020-05-24 05:00:00 9.1 10 Sudeste 36 Sudeste 0 -- -- 77
2020-05-24 04:00:00 7.6 8 Norte 17 Oeste 0 -- -- 78
2020-05-24 03:00:00 6 0 Calma 9 Sudeste 0 -- -- 86
2020-05-24 02:00:00 5.8 2 Sudeste 6 Sur 0 -- -- 85
2020-05-24 01:00:00 6.5 2 Sudeste 7 Sur 0 -- -- 86
2020-05-24 00:00:00 7.8 0 Calma 33 Este 0 -- -- 86
2020-05-23 23:00:00 9.1 7 Sudeste 23 Sudeste 0 -- -- 80
2020-05-23 22:00:00 9.6 3 Nordeste 10 Norte 0 -- -- 86
2020-05-23 21:00:00 12.1 6 Este 22 Sudeste 0 -- -- 77
2020-05-23 20:00:00 12.1 9 Este 25 Sudeste 0 -- -- 78
2020-05-23 19:00:00 12.5 11 Este 26 Sudeste 0 -- -- 81
2020-05-23 18:00:00 13.4 8 Este 20 Nordeste 0 -- -- 79
2020-05-23 17:00:00 14.8 8 Noroeste 15 Noroeste 0 -- -- 78
2020-05-23 16:00:00 13.7 6 Noroeste 15 Noroeste 0 -- -- 76
2020-05-23 15:00:00 12.1 8 Noroeste 15 Noroeste 0 -- -- 94
2020-05-23 14:00:00 12.1 9 Noroeste 16 Noroeste 0 -- -- 97
2020-05-23 13:00:00 11.4 6 Noroeste 15 Noroeste 0 -- -- 99
2020-05-23 12:00:00 10.9 6 Noroeste 16 Noroeste 0 -- -- 100
2020-05-23 11:00:00 11 8 Noroeste 15 Norte 0 -- -- 100
2020-05-23 10:00:00 10.8 7 Noroeste 14 Noroeste 0.4 -- -- 100
2020-05-23 09:00:00 11 10 Noroeste 18 Noroeste 0.8 -- -- 100
2020-05-23 08:00:00 11.2 4 Noroeste 12 Noroeste 0.6 -- -- 100
2020-05-23 07:00:00 11.4 3 Noroeste 12 Noroeste 1 -- -- 100
2020-05-23 06:00:00 12 6 Noroeste 15 Norte 1.2 -- -- 100
2020-05-23 05:00:00 12.9 0 Calma 5 Noroeste 0.4 -- -- 100
2020-05-23 04:00:00 13 0 Calma 3 Noroeste 0 -- -- 99
2020-05-23 03:00:00 13.1 0 Calma 4 Sudeste 0 -- -- 98
2020-05-23 02:00:00 12.9 3 Este 10 Noroeste 0 -- -- 99
2020-05-23 01:00:00 13.2 5 Noroeste 13 Noroeste 0.4 -- -- 99
2020-05-23 00:00:00 13.2 0 Calma 5 Noroeste 0.2 -- -- 99
2020-05-22 23:00:00 13.3 2 Noroeste 4 Noroeste 0 -- -- 99
2020-05-22 22:00:00 13.2 0 Calma 8 Noroeste 0 -- -- 99
2020-05-22 21:00:00 13.6 3 Noroeste 6 Oeste 0.2 -- -- 99
2020-05-22 20:00:00 13.3 3 Noroeste 13 Noroeste 0.2 -- -- 99
2020-05-22 19:00:00 13.9 5 Noroeste 12 Noroeste 0 -- -- 98
2020-05-22 18:00:00 14.8 8 Noroeste 14 Noroeste 0 -- -- 93
2020-05-22 17:00:00 16.1 8 Noroeste 16 Noroeste 0 -- -- 90
2020-05-22 16:00:00 17.6 9 Noroeste 17 Noroeste 0 -- -- 85
2020-05-22 15:00:00 19.1 13 Noroeste 19 Noroeste 0 -- -- 80
2020-05-22 14:00:00 19.4 12 Noroeste 19 Noroeste 0 -- -- 82
2020-05-22 13:00:00 18.5 10 Noroeste 18 Noroeste 0 -- -- 80
2020-05-22 12:00:00 18 8 Noroeste 14 Noroeste 0 -- -- 79
2020-05-22 11:00:00 16.8 7 Noroeste 13 Noroeste 0 -- -- 80
2020-05-22 10:00:00 15.8 5 Noroeste 9 Noroeste 0 -- -- 77
2020-05-22 09:00:00 13 2 Sudeste 6 Sudeste 0 -- -- 78
2020-05-22 08:00:00 12.3 0 Calma 6 Sudeste 0 -- -- 85
2020-05-22 07:00:00 12.8 3 Sudeste 8 Sudeste 0 -- -- 84
2020-05-22 06:00:00 13.2 2 Sudeste 6 Sudeste 0 -- -- 83
2020-05-22 05:00:00 13.9 4 Sudeste 8 Sudeste 0 -- -- 81
2020-05-22 04:00:00 14.6 3 Sudeste 7 Sudeste 0 -- -- 77
2020-05-22 03:00:00 15.8 0 Calma 7 Sur 0 -- -- 67
2020-05-22 02:00:00 16.2 3 Sudeste 10 Sudeste 0 -- -- 65
2020-05-22 01:00:00 17 3 Sudeste 14 Sudeste 0 -- -- 62
2020-05-22 00:00:00 18.7 8 Sudeste 14 Sudeste 0 -- -- 59
2020-05-21 23:00:00 18.9 4 Sudeste 11 Sudeste 0 -- -- 58
2020-05-21 22:00:00 20 4 Sudeste 9 Sudeste 0 -- -- 66
2020-05-21 21:00:00 22.6 2 Sudeste 12 Noroeste 0 -- -- 75
2020-05-21 20:00:00 26.2 2 Sudoeste 11 Noroeste 0 -- -- 64
2020-05-21 19:00:00 26.5 6 Noroeste 14 Noroeste 0 -- -- 62
2020-05-21 18:00:00 27.2 8 Noroeste 16 Noroeste 0 -- -- 57
2020-05-21 17:00:00 27.1 9 Noroeste 16 Oeste 0 -- -- 53
2020-05-21 16:00:00 26.7 6 Noroeste 14 Noroeste 0 -- -- 57
2020-05-21 15:00:00 25.4 8 Noroeste 12 Noroeste 0 -- -- 56
2020-05-21 14:00:00 24.2 7 Noroeste 13 Noroeste 0 -- -- 52
2020-05-21 13:00:00 22.8 6 Noroeste 10 Noroeste 0 -- -- 56
2020-05-21 12:00:00 20.6 3 Noroeste 9 Norte 0 -- -- 59
2020-05-21 11:00:00 18.6 6 Noroeste 10 Noroeste 0 -- -- 60
2020-05-21 10:00:00 17 3 Nordeste 7 Norte 0 -- -- 70
2020-05-21 09:00:00 14.2 0 Calma 8 Norte 0 -- -- 74
2020-05-21 08:00:00 13.2 0 Calma 9 Sudeste 0 -- -- 73
2020-05-21 07:00:00 11.6 2 Sudeste 8 Sur 0 -- -- 76
2020-05-21 06:00:00 11.4 2 Sudeste 13 Sudeste 0 -- -- 78
2020-05-21 05:00:00 11.7 4 Sudeste 15 Sur 0 -- -- 76
2020-05-21 04:00:00 11.1 6 Sudeste 12 Sudeste 0 -- -- 78
2020-05-21 03:00:00 10.9 4 Sudeste 10 Este 0 -- -- 80
2020-05-21 02:00:00 10.2 4 Sudeste 8 Sudeste 0 -- -- 91
2020-05-21 01:00:00 12.1 2 Norte 8 Noroeste 0 -- -- 85
2020-05-21 00:00:00 13.3 0 Calma 6 Noroeste 0 -- -- 86
2020-05-20 23:00:00 13.9 4 Noroeste 8 Norte 0 -- -- 85
2020-05-20 22:00:00 15 3 Noroeste 8 Norte 0 -- -- 87
2020-05-20 21:00:00 18.9 0 Calma 10 Noroeste 0 -- -- 74
2020-05-20 20:00:00 21.8 8 Noroeste 15 Noroeste 0 -- -- 68
2020-05-20 19:00:00 23.3 10 Noroeste 17 Noroeste 0 -- -- 58
2020-05-20 18:00:00 24.2 10 Noroeste 22 Noroeste 0 -- -- 56
2020-05-20 17:00:00 24.8 12 Noroeste 21 Noroeste 0 -- -- 55
2020-05-20 16:00:00 25.4 13 Noroeste 23 Noroeste 0 -- -- 44
2020-05-20 15:00:00 25.6 9 Noroeste 20 Noroeste 0 -- -- 44
2020-05-20 14:00:00 24.8 11 Noroeste 19 Noroeste 0 -- -- 39
2020-05-20 13:00:00 24.1 7 Noroeste 15 Noroeste 0 -- -- 45
2020-05-20 12:00:00 22.8 8 Noroeste 12 Noroeste 0 -- -- 48
2020-05-20 11:00:00 21.1 5 Noroeste 6 Noroeste 0 -- -- 42
2020-05-20 10:00:00 19.8 0 Calma 6 Sur 0 -- -- 37
2020-05-20 09:00:00 14.6 0 Calma 6 Sur 0 -- -- 36
2020-05-20 08:00:00 13.3 2 Sudeste 8 Sudeste 0 -- -- 46
2020-05-20 07:00:00 12.5 4 Sudeste 8 Sur 0 -- -- 55
2020-05-20 06:00:00 12.9 2 Sudeste 6 Este 0 -- -- 60
2020-05-20 05:00:00 14.1 2 Sudeste 15 Sudeste 0 -- -- 59
2020-05-20 04:00:00 14.9 4 Sudeste 17 Sudeste 0 -- -- 56
2020-05-20 03:00:00 13.3 3 Sudeste 8 Sudeste 0 -- -- 60
2020-05-20 02:00:00 12.9 3 Sudeste 6 Sudeste 0 -- -- 60
2020-05-20 01:00:00 13 2 Sudeste 6 Sur 0 -- -- 70
2020-05-20 00:00:00 12.7 0 Calma 4 Sur 0 -- -- 65
2020-05-19 23:00:00 12.7 3 Sudeste 5 Sudeste 0 -- -- 74
2020-05-19 22:00:00 13.9 2 Sudeste 5 Sudeste 0 -- -- 80
2020-05-19 21:00:00 17.4 0 Calma 8 Sur 0 -- -- 74
2020-05-19 20:00:00 22 5 Oeste 13 Noroeste 0 -- -- 60
2020-05-19 19:00:00 22.4 7 Noroeste 15 Noroeste 0 -- -- 59
2020-05-19 18:00:00 22.6 8 Noroeste 16 Norte 0 -- -- 59
2020-05-19 17:00:00 22.2 10 Noroeste 19 Noroeste 0 -- -- 58
2020-05-19 16:00:00 22.3 10 Noroeste 20 Noroeste 0 -- -- 54
2020-05-19 15:00:00 21.9 9 Noroeste 19 Noroeste 0 -- -- 53
2020-05-19 14:00:00 21.3 9 Noroeste 18 Noroeste 0 -- -- 52
2020-05-19 13:00:00 20.1 12 Noroeste 17 Noroeste 0 -- -- 50
2020-05-19 12:00:00 18.7 10 Norte 13 Norte 0 -- -- 58
2020-05-19 11:00:00 17 4 Noroeste 10 Noroeste 0 -- -- 60
2020-05-19 10:00:00 15.6 3 Noroeste 7 Noroeste 0 -- -- 63
2020-05-19 09:00:00 11.7 0 Calma 7 Este 0 -- -- 75
2020-05-19 08:00:00 10.5 3 Sudeste 6 Este 0 -- -- 77
2020-05-19 07:00:00 9.5 3 Sudeste 8 Sudeste 0 -- -- 75
2020-05-19 06:00:00 8.7 2 Sudeste 8 Sudeste 0 -- -- 75
2020-05-19 05:00:00 8.4 2 Sudeste 6 Este 0 -- -- 80
2020-05-19 04:00:00 9 3 Sudeste 5 Sudeste 0 -- -- 74
2020-05-19 03:00:00 9 0 Calma 6 Este 0 -- -- 74
2020-05-19 02:00:00 9.6 3 Sudeste 8 Sudeste 0 -- -- 75
2020-05-19 01:00:00 9.9 2 Sudeste 5 Sudeste 0 -- -- 84
2020-05-19 00:00:00 10.6 2 Sudeste 8 Sudeste 0 -- -- 83
2020-05-18 23:00:00 11.3 2 Sudeste 5 Sur 0 -- -- 86
2020-05-18 22:00:00 12.7 2 Sudeste 5 Este 0 -- -- 86
2020-05-18 21:00:00 16.3 0 Calma 11 Noroeste 0 -- -- 75
2020-05-18 20:00:00 19.2 7 Noroeste 15 Noroeste 0 -- -- 66
2020-05-18 19:00:00 20.2 7 Noroeste 15 Oeste 0 -- -- 62
2020-05-18 18:00:00 20.6 8 Noroeste 18 Noroeste 0 -- -- 62
2020-05-18 17:00:00 20.3 10 Noroeste 19 Noroeste 0 -- -- 63
2020-05-18 16:00:00 20.2 9 Noroeste 18 Noroeste 0 -- -- 58
2020-05-18 15:00:00 19.5 9 Noroeste 17 Noroeste 0 -- -- 60
2020-05-18 14:00:00 18.9 10 Noroeste 18 Oeste 0 -- -- 58
2020-05-18 13:00:00 18.1 9 Noroeste 16 Noroeste 0 -- -- 57
2020-05-18 12:00:00 17 9 Norte 13 Norte 0 -- -- 46
2020-05-18 11:00:00 16.2 4 Noroeste 8 Noroeste 0 -- -- 43
2020-05-18 10:00:00 15.1 0 Calma 9 Sudeste 0 -- -- 42
2020-05-18 09:00:00 9.9 4 Este 10 Este 0 -- -- 62
2020-05-18 08:00:00 8.9 3 Sudeste 9 Sudeste 0 -- -- 64
2020-05-18 07:00:00 7.7 3 Sudeste 8 Sudeste 0 -- -- 65
2020-05-18 06:00:00 7.7 2 Sudeste 10 Sur 0 -- -- 66
2020-05-18 05:00:00 7.1 4 Sudeste 10 Sudeste 0 -- -- 69
2020-05-18 04:00:00 7.3 4 Sudeste 8 Este 0 -- -- 70
2020-05-18 03:00:00 7.2 3 Sur 8 Sudeste 0 -- -- 74
2020-05-18 02:00:00 7.4 3 Sudeste 6 Sudeste 0 -- -- 78
2020-05-18 01:00:00 8.1 3 Sudeste 6 Sudeste 0 -- -- 71
2020-05-18 00:00:00 8.4 3 Sudeste 7 Sudeste 0 -- -- 72
2020-05-17 23:00:00 8.9 2 Sudeste 6 Este 0 -- -- 80
2020-05-17 22:00:00 10.3 3 Sudeste 8 Sudeste 0 -- -- 82
2020-05-17 21:00:00 12.8 4 Sur 12 Noroeste 0 -- -- 76
2020-05-17 20:00:00 17 6 Noroeste 15 Noroeste 0 -- -- 64
2020-05-17 19:00:00 17.2 8 Noroeste 18 Noroeste 0 -- -- 64
2020-05-17 18:00:00 17.4 12 Noroeste 21 Noroeste 0 -- -- 63
2020-05-17 17:00:00 17.5 9 Norte 19 Noroeste 0 -- -- 65
2020-05-17 16:00:00 17.8 5 Norte 21 Noroeste 0 -- -- 66
2020-05-17 15:00:00 17.3 10 Noroeste 19 Noroeste 0 -- -- 60
2020-05-17 14:00:00 16 8 Noroeste 16 Noroeste 0 -- -- 55
2020-05-17 13:00:00 14.8 8 Noroeste 14 Noroeste 0 -- -- 62
2020-05-17 12:00:00 13.3 6 Noroeste 11 Noroeste 0 -- -- 63
2020-05-17 11:00:00 12.1 3 Norte 8 Noroeste 0 -- -- 61
2020-05-17 10:00:00 10.7 3 Noroeste 6 Noroeste 0 -- -- 67
2020-05-17 09:00:00 6.2 0 Calma 10 Sur 0 -- -- 81
2020-05-17 08:00:00 5.6 4 Sudeste 10 Sudeste 0 -- -- 82
2020-05-17 07:00:00 -- -- -- -- -- -- -- -- --
2020-05-17 06:00:00 -- -- -- -- -- -- -- -- --
2020-05-17 05:00:00 -- -- -- -- -- -- -- -- --
2020-05-17 04:00:00 -- -- -- -- -- -- -- -- --
2020-05-17 03:00:00 -- -- -- -- -- -- -- -- --
2020-05-17 02:00:00 -- -- -- -- -- -- -- -- --
2020-05-17 01:00:00 -- -- -- -- -- -- -- -- --
2020-05-17 00:00:00 -- -- -- -- -- -- -- -- --
2020-05-16 23:00:00 -- -- -- -- -- -- -- -- --
2020-05-16 22:00:00 7.8 -- -- -- -- 0 -- -- --
2020-05-16 21:00:00 9.6 5 Norte 14 Norte 0 -- -- 87
2020-05-16 20:00:00 10.4 6 Norte 24 Noroeste 0 -- -- 84
2020-05-16 19:00:00 -- -- -- -- -- -- -- -- --
2020-05-16 18:00:00 -- -- -- -- -- -- -- -- --
2020-05-16 17:00:00 -- -- -- -- -- -- -- -- --
2020-05-16 16:00:00 -- -- -- -- -- -- -- -- --
2020-05-16 15:00:00 -- -- -- -- -- -- -- -- --
2020-05-16 14:00:00 -- -- -- -- -- -- -- -- --
2020-05-16 13:00:00 -- -- -- -- -- -- -- -- --
2020-05-16 12:00:00 -- -- -- -- -- -- -- -- --
2020-05-16 11:00:00 -- -- -- -- -- -- -- -- --
2020-05-16 10:00:00 9 0 Calma 5 Norte 0 -- -- 93
2020-05-16 09:00:00 7.9 3 Norte 8 Noroeste 0 -- -- 100
2020-05-16 08:00:00 7.5 0 Calma 3 Noroeste 0 -- -- 100
2020-05-16 07:00:00 7.4 0 Calma 5 Oeste 0 -- -- 100
2020-05-16 06:00:00 7.3 0 Calma 5 Noroeste 0 -- -- 100
2020-05-16 05:00:00 7.3 0 Calma 3 Noroeste 0 -- -- 100
2020-05-16 04:00:00 7.3 0 Calma 5 Norte 0 -- -- 99
2020-05-16 03:00:00 7.4 3 Norte 9 Norte 0 -- -- 98
2020-05-16 02:00:00 7.5 5 Norte 10 Norte 0 -- -- 97
2020-05-16 01:00:00 7.3 4 Norte 8 Norte 0 -- -- 99
2020-05-16 00:00:00 7.1 0 Calma 2 Norte 0 -- -- 98
2020-05-15 23:00:00 7.3 0 Calma 9 Norte 0 -- -- 95
2020-05-15 22:00:00 7.7 5 Norte 11 Noroeste 0 -- -- 92
2020-05-15 21:00:00 7.9 6 Norte 18 Norte 0 -- -- 92
2020-05-15 20:00:00 8 4 Norte 13 Norte 0 -- -- 92
2020-05-15 19:00:00 8.1 6 Norte 16 Noroeste 0.2 -- -- 95
2020-05-15 18:00:00 8.2 9 Noroeste 22 Noroeste 0 -- -- 99
2020-05-15 17:00:00 8.5 10 Noroeste 18 Noroeste 0 -- -- 98
2020-05-15 16:00:00 8.4 8 Norte 17 Noroeste 0 -- -- 99
2020-05-15 15:00:00 8.6 8 Noroeste 18 Noroeste 0 -- -- 98
2020-05-15 14:00:00 8.9 8 Norte 19 Noroeste 0 -- -- 95
2020-05-15 13:00:00 8.7 8 Norte 15 Norte 0 -- -- 97
2020-05-15 12:00:00 8.8 9 Norte 16 Noroeste 0 -- -- 97
2020-05-15 11:00:00 8.6 9 Norte 15 Norte 0 -- -- 99
2020-05-15 10:00:00 -- -- -- -- -- -- -- -- --
2020-05-15 09:00:00 8.7 8 Noroeste 14 Noroeste 0.6 -- -- 100
2020-05-15 08:00:00 8.6 7 Norte 13 Noroeste 2.4 -- -- 100
2020-05-15 07:00:00 8.3 0 Calma 2 Norte 2 -- -- 100
2020-05-15 06:00:00 8.2 0 Calma 5 Norte 2 -- -- 100
2020-05-15 05:00:00 8.2 6 Norte 10 Norte 1.2 -- -- 100
2020-05-15 04:00:00 8 0 Calma 9 Norte 0.8 -- -- 100
2020-05-15 03:00:00 8 5 Norte 15 Norte 0.8 -- -- 100
2020-05-15 02:00:00 8.1 2 Noroeste 6 Norte 0.4 -- -- 100
2020-05-15 01:00:00 8.1 0 Calma 5 Noroeste 0.6 -- -- 100
2020-05-15 00:00:00 8.1 3 Noroeste 9 Noroeste 0.6 -- -- 100
2020-05-14 23:00:00 8.3 7 Noroeste 14 Noroeste 0.6 -- -- 100
2020-05-14 22:00:00 8.5 4 Noroeste 16 Noroeste 0.8 -- -- 100
2020-05-14 21:00:00 8.6 4 Noroeste 17 Noroeste 1 -- -- 100
2020-05-14 20:00:00 9.1 5 Noroeste 15 Noroeste 0.2 -- -- 100
2020-05-14 19:00:00 9.9 6 Noroeste 15 Noroeste 0 -- -- 93
2020-05-14 18:00:00 10.7 11 Noroeste 22 Noroeste 0 -- -- 90
2020-05-14 17:00:00 10.6 5 Noroeste 19 Noroeste 0 -- -- 93
2020-05-14 16:00:00 10 9 Noroeste 21 Noroeste 0 -- -- 98
2020-05-14 15:00:00 10 10 Noroeste 18 Noroeste 0 -- -- 98
2020-05-14 14:00:00 10.4 8 Noroeste 18 Noroeste 0 -- -- 97
2020-05-14 13:00:00 9.8 6 Noroeste 15 Noroeste 0.2 -- -- 100
2020-05-14 12:00:00 9.9 8 Norte 13 Noroeste 0 -- -- 98
2020-05-14 11:00:00 10.1 6 Noroeste 15 Sur 0 -- -- 95
2020-05-14 10:00:00 11 6 Sur 21 Este 0 -- -- 82
2020-05-14 09:00:00 10.1 9 Sudeste 24 Sudeste 0 -- -- 87
2020-05-14 08:00:00 9.3 4 Norte 18 Sudeste 0 -- -- 98
2020-05-14 07:00:00 9 0 Calma 13 Norte 0 -- -- 100
2020-05-14 06:00:00 9 2 Noroeste 5 Noroeste 0 -- -- 100
2020-05-14 05:00:00 9 0 Calma 3 Norte 0 -- -- 100
2020-05-14 04:00:00 9.1 0 Calma 6 Oeste 0 -- -- 100
2020-05-14 03:00:00 9.1 3 Noroeste 5 Noroeste 0 -- -- 100
2020-05-14 02:00:00 9.1 3 Noroeste 5 Noroeste 0 -- -- 100
2020-05-14 01:00:00 9.1 3 Noroeste 6 Noroeste 0 -- -- 100
2020-05-14 00:00:00 9.2 2 Noroeste 4 Noroeste 0 -- -- 100
2020-05-13 23:00:00 9.2 0 Calma 5 Noroeste 0.2 -- -- 100
2020-05-13 22:00:00 9.3 0 Calma 8 Noroeste 0.4 -- -- 100
2020-05-13 21:00:00 9.5 6 Noroeste 11 Noroeste 0 -- -- 100
2020-05-13 20:00:00 9.8 2 Noroeste 9 Noroeste 0.2 -- -- 100
2020-05-13 19:00:00 10 4 Noroeste 9 Noroeste 0 -- -- 100
2020-05-13 18:00:00 10.3 3 Noroeste 8 Noroeste 0 -- -- 100
2020-05-13 17:00:00 10 6 Noroeste 16 Noroeste 0 -- -- 99
2020-05-13 16:00:00 11.6 8 Noroeste 14 Noroeste 0 -- -- 93
2020-05-13 15:00:00 12 8 Noroeste 15 Noroeste 0 -- -- 91
2020-05-13 14:00:00 12.4 5 Noroeste 10 Oeste 0 -- -- 90
2020-05-13 13:00:00 10.5 4 Noroeste 10 Oeste 0 -- -- 98
2020-05-13 12:00:00 10 6 Noroeste 9 Noroeste 0 -- -- 100
2020-05-13 11:00:00 8.8 2 Noroeste 4 Noroeste 0.8 -- -- 100
2020-05-13 10:00:00 8.3 0 Calma 6 Noroeste 1 -- -- 100
2020-05-13 09:00:00 8.2 2 Noroeste 4 Noroeste 1 -- -- 100
2020-05-13 08:00:00 8.1 2 Noroeste 3 Noroeste 0.6 -- -- 100
2020-05-13 07:00:00 8 0 Calma 4 Norte 0.2 -- -- 100
2020-05-13 06:00:00 7.9 3 Norte 5 Norte 0 -- -- 100
2020-05-13 05:00:00 7.8 3 Norte 5 Norte 0 -- -- 100
2020-05-13 04:00:00 7.9 3 Noroeste 6 Norte 0 -- -- 100
2020-05-13 03:00:00 8 0 Calma 4 Noroeste 0 -- -- 100
2020-05-13 02:00:00 8 2 Noroeste 3 Noroeste 0.2 -- -- 100
2020-05-13 01:00:00 8 -- -- -- -- 0 -- -- 100
2020-05-13 00:00:00 7.9 2 Noroeste 5 Noroeste 0.2 -- -- 100
2020-05-12 23:00:00 8 3 Norte 6 Noroeste 0 -- -- 100
2020-05-12 22:00:00 8.1 3 Noroeste 6 Noroeste 0.2 -- -- 100
2020-05-12 21:00:00 8.2 4 Noroeste 8 Norte 0 -- -- 100
2020-05-12 20:00:00 8.3 4 Noroeste 7 Noroeste 0.2 -- -- 100
2020-05-12 19:00:00 8.5 3 Noroeste 10 Noroeste 0 -- -- 100
2020-05-12 18:00:00 9 6 Noroeste 11 Norte 0 -- -- 100
2020-05-12 17:00:00 8.9 3 Noroeste 9 Noroeste 0 -- -- 100
2020-05-12 16:00:00 8.8 5 Noroeste 12 Noroeste 0 -- -- 100
2020-05-12 15:00:00 9.3 5 Noroeste 10 Noroeste 0 -- -- 100
2020-05-12 14:00:00 9.7 6 Noroeste 15 Noroeste 0 -- -- 97
2020-05-12 13:00:00 10.9 8 Noroeste 13 Noroeste 0 -- -- 94
2020-05-12 12:00:00 9.5 3 Noroeste 6 Noroeste 0 -- -- 100
2020-05-12 11:00:00 8.4 5 Noroeste 9 Noroeste 0 -- -- 100
2020-05-12 10:00:00 8.1 0 Calma 4 Noroeste 0 -- -- 100
2020-05-12 09:00:00 7.4 3 Noroeste 5 Noroeste 0 -- -- 100
2020-05-12 08:00:00 7.1 2 Noroeste 8 Norte 0.2 -- -- 100
2020-05-12 07:00:00 7.1 6 Noroeste 9 Noroeste 0.2 -- -- 100
2020-05-12 06:00:00 7.5 3 Noroeste 8 Noroeste 0 -- -- 100
2020-05-12 05:00:00 7.8 3 Noroeste 7 Noroeste 0 -- -- 100
2020-05-12 04:00:00 8 2 Noroeste 6 Noroeste 0.2 -- -- 100
2020-05-12 03:00:00 8.3 4 Noroeste 8 Noroeste 0.2 -- -- 100
2020-05-12 02:00:00 8.7 4 Norte 8 Norte 0 -- -- 100
2020-05-12 01:00:00 9 4 Noroeste 7 Norte 0 -- -- 100
2020-05-12 00:00:00 9.3 3 Norte 8 Noroeste 0 -- -- 100
2020-05-11 23:00:00 9.6 4 Noroeste 11 Noroeste 0 -- -- 99
2020-05-11 22:00:00 10.5 5 Noroeste 9 Noroeste 0 -- -- 94
2020-05-11 21:00:00 10.9 2 Norte 15 Norte 0 -- -- 91
2020-05-11 20:00:00 11.4 8 Noroeste 19 Noroeste 0 -- -- 90
2020-05-11 19:00:00 12.5 5 Norte 18 Noroeste 0 -- -- 83
2020-05-11 18:00:00 12.8 11 Noroeste 19 Noroeste 0 -- -- 80
2020-05-11 17:00:00 12.9 9 Noroeste 24 Noroeste 0 -- -- 82
2020-05-11 16:00:00 14.2 10 Noroeste 23 Oeste 0 -- -- 78
2020-05-11 15:00:00 14.5 6 Noroeste 23 Norte 0 -- -- 74
2020-05-11 14:00:00 12.9 8 Norte 17 Norte 0 -- -- 81
2020-05-11 13:00:00 11.8 12 Norte 22 Noroeste 0 -- -- 85
2020-05-11 12:00:00 11.3 11 Norte 27 Noroeste 0 -- -- 88
2020-05-11 11:00:00 -- -- -- -- -- -- -- -- --
2020-05-11 10:00:00 -- -- -- -- -- -- -- -- --
2020-05-11 09:00:00 -- -- -- -- -- -- -- -- --
2020-05-11 08:00:00 9.6 -- -- -- -- 0 -- -- --
2020-05-11 07:00:00 9.5 5 Sudeste 9 Sudeste 0 -- -- 90
2020-05-11 06:00:00 9.6 3 Sudeste 10 Sudeste 0 -- -- 92
2020-05-11 05:00:00 10 5 Norte 23 Norte 0 -- -- 91
2020-05-11 04:00:00 9.9 -- -- -- -- 0 -- -- 93
2020-05-11 03:00:00 9.8 12 Norte 27 Norte 0 -- -- 95
2020-05-11 02:00:00 9.7 11 Norte 30 Norte 0 -- -- 95
2020-05-11 01:00:00 9.8 9 Norte 22 Norte 0.2 -- -- 98
2020-05-11 00:00:00 9.6 7 Noroeste 18 Norte 0 -- -- 98
2020-05-10 23:00:00 9.5 11 Norte 19 Noroeste 0 -- -- 96
2020-05-10 22:00:00 9.5 9 Noroeste 30 Noroeste 0.4 -- -- 97
2020-05-10 21:00:00 9.6 13 Noroeste 26 Noroeste 1.2 -- -- 99
2020-05-10 20:00:00 9.9 13 Noroeste 27 Noroeste 1.2 -- -- 98
2020-05-10 19:00:00 10.2 9 Norte 24 Norte 1 -- -- 98
2020-05-10 18:00:00 10.1 -- -- -- -- -- -- -- --
2020-05-10 17:00:00 10.2 9 Norte 23 Norte 0.8 -- -- 97
2020-05-10 16:00:00 10.1 8 Norte 28 Norte 0.6 -- -- 96
2020-05-10 15:00:00 10.1 7 Noroeste 32 Norte 1 -- -- 97
2020-05-10 14:00:00 10.5 12 Noroeste 24 Noroeste 2.6 -- -- 98
2020-05-10 13:00:00 10.3 7 Noroeste 22 Noroeste 1.2 -- -- 98
2020-05-10 12:00:00 11 9 Noroeste 23 Noroeste 0.8 -- -- 95
2020-05-10 11:00:00 12.2 11 Norte 17 Norte 0 -- -- 90
2020-05-10 10:00:00 11.6 3 Noroeste 10 Sur 0 -- -- 95
2020-05-10 09:00:00 11.7 6 Sudeste 13 Sudeste 0.2 -- -- 86
2020-05-10 08:00:00 11.2 5 Sudeste 16 Sudeste 4.4 -- -- 92
2020-05-10 07:00:00 11.6 0 Calma 8 Noroeste 0 -- -- 100
2020-05-10 06:00:00 11.8 3 Oeste 5 Oeste 6.2 -- -- 99
2020-05-10 05:00:00 12 3 Oeste 8 Noroeste 0 -- -- 98
2020-05-10 04:00:00 11.9 0 Calma 3 Norte 0 -- -- 96
2020-05-10 03:00:00 11.7 4 Sudeste 8 Sudeste 0 -- -- 96
2020-05-10 02:00:00 12.1 4 Sudeste 8 Sudeste 0 -- -- 98
2020-05-10 01:00:00 12.7 3 Noroeste 6 Noroeste 0 -- -- 97
2020-05-10 00:00:00 12.8 2 Noroeste 4 Oeste 0 -- -- 99
2020-05-09 23:00:00 12.9 0 Calma 9 Noroeste 0 -- -- 98
2020-05-09 22:00:00 13.6 7 Este 15 Sudeste 0 -- -- 91
2020-05-09 21:00:00 14.1 5 Noroeste 10 Noroeste 0 -- -- 97
2020-05-09 20:00:00 14.4 5 Noroeste 11 Noroeste 0 -- -- 98
2020-05-09 19:00:00 14.6 2 Oeste 13 Norte 0 -- -- 99
2020-05-09 18:00:00 15 6 Noroeste 19 Noroeste 0 -- -- 95
2020-05-09 17:00:00 16.9 9 Noroeste 15 Noroeste 0 -- -- 92
2020-05-09 16:00:00 17.4 10 Noroeste 24 Noroeste 0 -- -- 87
2020-05-09 15:00:00 21 5 Sudoeste 22 Sur 0 -- -- 61
2020-05-09 14:00:00 21.2 4 Sudoeste 16 Sudoeste 0 -- -- 62
2020-05-09 13:00:00 19.4 8 Noroeste 15 Sudeste 0 -- -- 74
2020-05-09 12:00:00 18.9 8 Noroeste 20 Sudeste 0 -- -- 76
2020-05-09 11:00:00 18.2 12 Sudeste 21 Sudeste 0 -- -- 65
2020-05-09 10:00:00 18.3 3 Sudoeste 15 Sudoeste 0 -- -- 69
2020-05-09 09:00:00 16.5 6 Sur 20 Sur 0 -- -- 70
2020-05-09 08:00:00 15.9 5 Norte 10 Este 0 -- -- 73
2020-05-09 07:00:00 16.3 5 Norte 23 Sur 0 -- -- 69
2020-05-09 06:00:00 17.8 8 Sudeste 53 Sudeste 0 -- -- 60
2020-05-09 05:00:00 17.6 27 Sudeste 42 Sudeste 0 -- -- 61
2020-05-09 04:00:00 16.3 12 Sudeste 21 Sudeste 0 -- -- 67
2020-05-09 03:00:00 12.7 3 Sudeste 8 Este 0 -- -- 94
2020-05-09 02:00:00 13.3 -- -- -- -- -- -- -- --
2020-05-09 01:00:00 13.7 7 Sudeste 10 Norte 0.2 -- -- 93
2020-05-09 00:00:00 14.1 8 Noroeste 25 Norte 0 -- -- 96
2020-05-08 23:00:00 14.5 17 Noroeste 32 Sudeste 1.2 -- -- 92
2020-05-08 22:00:00 17.1 13 Sudeste 51 Sudeste 0 -- -- 66
2020-05-08 21:00:00 18.4 3 Oeste 10 Norte 0 -- -- 84
2020-05-08 20:00:00 21.2 4 Oeste 18 Noroeste 0 -- -- 75
2020-05-08 19:00:00 24.1 6 Noroeste 17 Noroeste 0 -- -- 59
2020-05-08 18:00:00 23.4 9 Noroeste 17 Noroeste 0 -- -- 62
2020-05-08 17:00:00 23.9 4 Nordeste 14 Sur 0 -- -- 53
2020-05-08 16:00:00 22.7 9 Noroeste 17 Noroeste 0 -- -- 56
2020-05-08 15:00:00 23.2 3 Sudeste 23 Sur 0 -- -- 50
2020-05-08 14:00:00 22.1 9 Sudeste 28 Este 0 -- -- 48
2020-05-08 13:00:00 21.3 8 Sudeste 27 Sudeste 0 -- -- 49
2020-05-08 12:00:00 19.9 16 Sudeste 33 Sudeste 0 -- -- 50
2020-05-08 11:00:00 17.6 12 Sudeste 35 Sudeste 0.2 -- -- 58
2020-05-08 10:00:00 16.5 13 Sudeste 27 Sudeste 0 -- -- 65
2020-05-08 09:00:00 14.8 3 Este 16 Sur 1.4 -- -- 78
2020-05-08 08:00:00 15.6 9 Sudeste 36 Sudeste 1.2 -- -- 70
2020-05-08 07:00:00 16.6 9 Sudeste 38 Sudeste 0 -- -- 65
2020-05-08 06:00:00 20 21 Sudeste 33 Sur 0 -- -- 57
2020-05-08 05:00:00 19.6 12 Sudeste 22 Sudeste 0 -- -- 59
2020-05-08 04:00:00 17.8 4 Noroeste 32 Este 0 -- -- 77
2020-05-08 03:00:00 22.1 17 Sudeste 43 Sudeste 0 -- -- 51
2020-05-08 02:00:00 21.9 17 Sudeste 42 Sur 0 -- -- 53
2020-05-08 01:00:00 21.2 12 Sudoeste 37 Sur 0 -- -- 56
2020-05-08 00:00:00 16.7 11 Norte 22 Norte 0 -- -- 82
2020-05-07 23:00:00 16.1 9 Sudeste 19 Sudeste 0 -- -- 91
2020-05-07 22:00:00 16.8 18 Noroeste 42 Oeste 0.2 -- -- 87
2020-05-07 21:00:00 21.8 14 Sudeste 28 Este 0 -- -- 60
2020-05-07 20:00:00 21.8 6 Noroeste 23 Este 0 -- -- 76
2020-05-07 19:00:00 23.8 6 Noroeste 15 Noroeste 0 -- -- 72
2020-05-07 18:00:00 23.3 9 Noroeste 17 Noroeste 0 -- -- 70
2020-05-07 17:00:00 22.4 10 Noroeste 19 Norte 0 -- -- 73
2020-05-07 16:00:00 21.9 13 Noroeste 19 Norte 0 -- -- 73
2020-05-07 15:00:00 21.9 6 Noroeste 13 Noroeste 0 -- -- 70
2020-05-07 14:00:00 20.3 8 Noroeste 17 Noroeste 0 -- -- 77
2020-05-07 13:00:00 20.3 8 Noroeste 18 Noroeste 0 -- -- 74
2020-05-07 12:00:00 19 6 Noroeste 13 Noroeste 0 -- -- 72
2020-05-07 11:00:00 16.3 8 Noroeste 18 Noroeste 0 -- -- 86
2020-05-07 10:00:00 14 5 Noroeste 8 Oeste 0 -- -- 92
2020-05-07 09:00:00 12 3 Noroeste 7 Este 0 -- -- 99
2020-05-07 08:00:00 10.7 2 Este 6 Sudeste 0 -- -- 100
2020-05-07 07:00:00 11.3 4 Norte 7 Noroeste 0 -- -- 100
2020-05-07 06:00:00 11.2 2 Sur 5 Noroeste 0 -- -- 100
2020-05-07 05:00:00 11.3 0 Calma 5 Nordeste 0 -- -- 99
2020-05-07 04:00:00 11.3 4 Norte 9 Norte 0 -- -- 99
2020-05-07 03:00:00 11.1 3 Sudeste 6 Sur 0 -- -- 96
2020-05-07 02:00:00 12.1 2 Sudeste 6 Sur 0 -- -- 97
2020-05-07 01:00:00 12.9 0 Calma 5 Oeste 0 -- -- 97
2020-05-07 00:00:00 13.3 3 Noroeste 5 Noroeste 0 -- -- 97
2020-05-06 23:00:00 13.7 3 Oeste 8 Noroeste 0 -- -- 95
2020-05-06 22:00:00 14.1 5 Noroeste 10 Norte 0 -- -- 93
2020-05-06 21:00:00 15.1 6 Noroeste 17 Norte 0 -- -- 89
2020-05-06 20:00:00 17.8 9 Noroeste 20 Noroeste 0 -- -- 80
2020-05-06 19:00:00 20.3 5 Noroeste 18 Noroeste 0 -- -- 75
2020-05-06 18:00:00 19.9 7 Noroeste 16 Noroeste 0 -- -- 72
2020-05-06 17:00:00 20 8 Noroeste 19 Noroeste 0 -- -- 71
2020-05-06 16:00:00 20.4 8 Noroeste 15 Noroeste 0 -- -- 69
2020-05-06 15:00:00 20.2 8 Noroeste 17 Noroeste 0 -- -- 63
2020-05-06 14:00:00 19.3 6 Noroeste 12 Oeste 0 -- -- 65
2020-05-06 13:00:00 18.3 3 Noroeste 11 Noroeste 0 -- -- 64
2020-05-06 12:00:00 17.5 2 Noroeste 9 Norte 0 -- -- 65
2020-05-06 11:00:00 15.2 3 Sudeste 6 Sudeste 0 -- -- 76
2020-05-06 10:00:00 -- -- -- -- -- -- -- -- --
2020-05-06 09:00:00 12.8 3 Sudeste 9 Sudeste 0 -- -- 76
2020-05-06 08:00:00 12 5 Sudeste 9 Sudeste 0 -- -- 75
2020-05-06 07:00:00 11.8 4 Sudeste 11 Sudeste 0 -- -- 72
2020-05-06 06:00:00 12.6 4 Sudeste 14 Sur 0 -- -- 67
2020-05-06 05:00:00 12.5 5 Sudeste 13 Sudeste 0 -- -- 63
2020-05-06 04:00:00 12.5 5 Sudeste 12 Sur 0 -- -- 62
2020-05-06 03:00:00 13.5 7 Sudeste 13 Sudeste 0 -- -- 59
2020-05-06 02:00:00 13.9 4 Sudeste 16 Este 0 -- -- 61
2020-05-06 01:00:00 14.5 8 Sudeste 16 Sudeste 0 -- -- 60
2020-05-06 00:00:00 15.2 6 Este 13 Sudeste 0 -- -- 57
2020-05-05 23:00:00 16.2 5 Sudeste 14 Sudeste 0 -- -- 52
2020-05-05 22:00:00 15.8 7 Sudeste 13 Sudeste 0 -- -- 52
2020-05-05 21:00:00 16.9 4 Sudeste 13 Sur 0 -- -- 51
2020-05-05 20:00:00 19.7 4 Sudeste 16 Sur 0 -- -- 40
2020-05-05 19:00:00 21 4 Nordeste 21 Sur 0 -- -- 39
2020-05-05 18:00:00 20.7 8 Sur 33 Sudeste 0 -- -- 40
2020-05-05 17:00:00 21.4 11 Sudeste 27 Sudeste 0 -- -- 41
2020-05-05 16:00:00 20.9 8 Norte 28 Sudeste 0 -- -- 43
2020-05-05 15:00:00 20.7 11 Sudeste 26 Sudeste 0 -- -- 41
2020-05-05 14:00:00 20.3 10 Sudeste 19 Sudeste 0 -- -- 43
2020-05-05 13:00:00 19.4 6 Sudeste 19 Sudeste 0 -- -- 48
2020-05-05 12:00:00 19 5 Este 13 Oeste 0 -- -- 47
2020-05-05 11:00:00 17.7 5 Nordeste 16 Sur 0 -- -- 52
2020-05-05 10:00:00 16.2 5 Noroeste 15 Noroeste 0 -- -- 49
2020-05-05 09:00:00 13.2 6 Este 13 Este 0 -- -- 56
2020-05-05 08:00:00 13.4 4 Sur 21 Sudeste 0 -- -- 60
2020-05-05 07:00:00 14.7 4 Sudeste 22 Sudeste 0 -- -- 50
2020-05-05 06:00:00 15.4 15 Sudeste 33 Sudeste 0 -- -- 55
2020-05-05 05:00:00 16.1 12 Sudeste 43 Sudeste 0 -- -- 56
2020-05-05 04:00:00 16.4 21 Sudeste 41 Sudeste 0 -- -- 57
2020-05-05 03:00:00 16.7 20 Sudeste 41 Sudeste 0 -- -- 60
2020-05-05 02:00:00 17.1 17 Sudeste 37 Sudeste 0 -- -- 62
2020-05-05 01:00:00 17.6 19 Sudeste 43 Sudeste 0 -- -- 56
2020-05-05 00:00:00 16.9 11 Sudeste 21 Sudeste 0 -- -- 61
2020-05-04 23:00:00 12.8 4 Sudeste 12 Sudeste 0 -- -- 89
2020-05-04 22:00:00 13.3 3 Sudeste 13 Noroeste 0 -- -- 88
2020-05-04 21:00:00 15.1 11 Norte 59 Noroeste 0 -- -- 82
2020-05-04 20:00:00 25.2 16 Sudeste 57 Sudeste 0 -- -- 41
2020-05-04 19:00:00 26.8 10 Sur 47 Sudeste 0 -- -- 39
2020-05-04 18:00:00 27.5 28 Sudeste 56 Este 0 -- -- 38
2020-05-04 17:00:00 28.2 28 Sudeste 60 Sur 0 -- -- 30
2020-05-04 16:00:00 26.5 22 Sudeste 60 Sudeste 0 -- -- 39
2020-05-04 15:00:00 26.5 26 Sudeste 55 Este 0 -- -- 38
2020-05-04 14:00:00 27.4 15 Sudeste 37 Sudeste 0 -- -- 29
2020-05-04 13:00:00 28.7 20 Sudeste 45 Este 0 -- -- 29
2020-05-04 12:00:00 26.7 27 Sudeste 52 Sudeste 0 -- -- 29
2020-05-04 11:00:00 26.3 21 Sudeste 51 Sur 0 -- -- 31
2020-05-04 10:00:00 24.6 14 Sudeste 44 Sudoeste 0 -- -- 37
2020-05-04 09:00:00 22.1 8 Sur 26 Sur 0 -- -- 42
2020-05-04 08:00:00 21.1 12 Sudeste 17 Sudeste 0 -- -- 42
2020-05-04 07:00:00 20 6 Sudeste 13 Sudeste 0 -- -- 46
2020-05-04 06:00:00 20.7 9 Sudeste 15 Sudeste 0 -- -- 42
2020-05-04 05:00:00 19.5 8 Sudeste 18 Sur 0 -- -- 48
2020-05-04 04:00:00 19.9 5 Sudeste 17 Sudeste 0 -- -- 48
2020-05-04 03:00:00 18.5 8 Sudeste 14 Sudeste 0 -- -- 54
2020-05-04 02:00:00 18.9 5 Este 13 Sudeste 0 -- -- 53
2020-05-04 01:00:00 19.9 5 Este 18 Este 0 -- -- 49
2020-05-04 00:00:00 20 9 Sudeste 23 Sudeste 0 -- -- 46
2020-05-03 23:00:00 18.9 4 Sudeste 14 Sudeste 0 -- -- 51
2020-05-03 22:00:00 18 4 Sudeste 11 Sudeste 0 -- -- 54
2020-05-03 21:00:00 18.8 3 Sudeste 6 Este 0 -- -- 79
2020-05-03 20:00:00 22.3 0 Calma 14 Noroeste 0 -- -- 73
2020-05-03 19:00:00 24.8 5 Noroeste 15 Noroeste 0 -- -- 67
2020-05-03 18:00:00 25 9 Noroeste 17 Noroeste 0 -- -- 63
2020-05-03 17:00:00 25.3 10 Noroeste 19 Sur 0 -- -- 55
2020-05-03 16:00:00 25.4 9 Sur 22 Sudeste 0 -- -- 34
2020-05-03 15:00:00 24.1 11 Sudeste 26 Sudeste 0 -- -- 38
2020-05-03 14:00:00 22.8 13 Sur 30 Sudeste 0 -- -- 46
2020-05-03 13:00:00 21.8 6 Sur 21 Sur 0 -- -- 53
2020-05-03 12:00:00 20.2 9 Sur 23 Sudoeste 0 -- -- 55
2020-05-03 11:00:00 16.8 5 Noroeste 10 Noroeste 0 -- -- 74
2020-05-03 10:00:00 15 3 Norte 5 Sudeste 0 -- -- 80
2020-05-03 09:00:00 11.5 2 Sudeste 5 Sudeste 0 -- -- 92
2020-05-03 08:00:00 10.6 3 Sudeste 6 Sur 0 -- -- 92
2020-05-03 07:00:00 11 0 Calma 10 Sudeste 0 -- -- 89
2020-05-03 06:00:00 10.8 2 Sudeste 9 Sudeste 0 -- -- 91
2020-05-03 05:00:00 11 0 Calma 8 Sur 0 -- -- 91
2020-05-03 04:00:00 11 2 Sudeste 6 Este 0 -- -- 92
2020-05-03 03:00:00 11.4 3 Sur 8 Sur 0 -- -- 90
2020-05-03 02:00:00 11.6 2 Sudeste 7 Sudeste 0 -- -- 89
2020-05-03 01:00:00 12.8 3 Sudeste 6 Sudeste 0 -- -- 85
2020-05-03 00:00:00 13.9 0 Calma 5 Este 0 -- -- 84
2020-05-02 23:00:00 13.9 0 Calma 10 Sudeste 0 -- -- 82
2020-05-02 22:00:00 14.7 2 Sudeste 7 Sudeste 0 -- -- 78
2020-05-02 21:00:00 16 0 Calma 10 Norte 0 -- -- 72
2020-05-02 20:00:00 17.3 4 Noroeste 9 Noroeste 0 -- -- 71
2020-05-02 19:00:00 17.6 3 Noroeste 8 Oeste 0 -- -- 72
2020-05-02 18:00:00 17.7 2 Noroeste 7 Noroeste 0 -- -- 69
2020-05-02 17:00:00 16.4 3 Sur 26 Noroeste 0 -- -- 74
2020-05-02 16:00:00 15.8 12 Noroeste 24 Noroeste 0 -- -- 87
2020-05-02 15:00:00 18.8 13 Noroeste 21 Norte 0 -- -- 81
2020-05-02 14:00:00 18.7 14 Norte 24 Noroeste 0 -- -- 80
2020-05-02 13:00:00 19.9 9 Sudeste 25 Oeste 0 -- -- 59
2020-05-02 12:00:00 19.9 9 Sudeste 21 Sudeste 0 -- -- 60
2020-05-02 11:00:00 18.2 4 Noroeste 7 Noroeste 0 -- -- 66
2020-05-02 10:00:00 16 3 Norte 9 Sudeste 0 -- -- 73
2020-05-02 09:00:00 12.5 2 Sur 10 Sudeste 0 -- -- 84
2020-05-02 08:00:00 12.6 5 Sudeste 11 Sudeste 0 -- -- 80
2020-05-02 07:00:00 11.5 3 Sudeste 16 Sudeste 0 -- -- 83
2020-05-02 06:00:00 12.1 7 Sudeste 11 Sudeste 0 -- -- 81
2020-05-02 05:00:00 12.3 4 Sudeste 13 Sudeste 0 -- -- 84
2020-05-02 04:00:00 12 4 Sudeste 11 Este 0 -- -- 88
2020-05-02 03:00:00 12.9 2 Sudeste 14 Sudeste 0 -- -- 88
2020-05-02 02:00:00 13.3 4 Sudeste 10 Sudeste 0 -- -- 92
2020-05-02 01:00:00 14 4 Sudeste 9 Sudeste 0 -- -- 92
2020-05-02 00:00:00 14.2 3 Sudeste 13 Sudeste 0 -- -- 93
2020-05-01 23:00:00 13.5 4 Este 8 Este 1 -- -- 98
2020-05-01 22:00:00 13.5 4 Norte 6 Norte 0.2 -- -- 99
2020-05-01 21:00:00 13.8 0 Calma 6 Nordeste 0.4 -- -- 98
2020-05-01 20:00:00 13.6 5 Norte 13 Norte 7.2 -- -- 98
2020-05-01 19:00:00 14.2 4 Noroeste 15 Norte 2.4 -- -- 96
2020-05-01 18:00:00 14.5 9 Noroeste 23 Noroeste 0.8 -- -- 92
2020-05-01 17:00:00 17.2 15 Noroeste 27 Noroeste 0 -- -- 88
2020-05-01 16:00:00 18.5 9 Sudeste 20 Sur 0 -- -- 68
2020-05-01 15:00:00 17.4 8 Nordeste 23 Sudeste 0.4 -- -- 72
2020-05-01 14:00:00 17 9 Nordeste 41 Sudeste 0 -- -- 72
2020-05-01 13:00:00 17.1 19 Este 40 Sudeste 0 -- -- 69
2020-05-01 12:00:00 15.7 13 Sudeste 34 Sudeste 0.2 -- -- 74
2020-05-01 11:00:00 15.1 13 Nordeste 30 Sudeste 0 -- -- 77
2020-05-01 10:00:00 15.8 13 Este 42 Sudeste 0 -- -- 68
2020-05-01 09:00:00 15.4 17 Este 46 Sudeste 0 -- -- 69
2020-05-01 08:00:00 15.6 15 Sudeste 47 Sudeste 0 -- -- 66
2020-05-01 07:00:00 15.2 19 Sudeste 55 Sudeste 0 -- -- 67
2020-05-01 06:00:00 14.5 6 Sudeste 30 Sudeste 0 -- -- 69
2020-05-01 05:00:00 14.4 9 Este 37 Este 0 -- -- 69
2020-05-01 04:00:00 14.3 14 Sudeste 29 Este 0 -- -- 68
2020-05-01 03:00:00 14.2 8 Sudeste 32 Sur 0 -- -- 70
2020-05-01 02:00:00 14.4 9 Este 34 Este 0 -- -- 68
2020-05-01 01:00:00 14.3 7 Este 44 Este 0 -- -- 68
2020-05-01 00:00:00 14.4 12 Sudeste 47 Sudeste 0 -- -- 66
2020-04-30 23:00:00 14.3 17 Sudeste 62 Sudeste 0 -- -- 65
2020-04-30 22:00:00 14.3 26 Sudeste 53 Sudeste 0 -- -- 64
2020-04-30 21:00:00 14.3 26 Sudeste 49 Sudeste 0 -- -- 63
2020-04-30 20:00:00 15 20 Sudeste 42 Sudeste 0 -- -- 63
2020-04-30 19:00:00 14.5 20 Sudeste 51 Sudeste 0 -- -- 63
2020-04-30 18:00:00 14.9 21 Sudeste 51 Sudeste 0 -- -- 61
2020-04-30 17:00:00 15 17 Sudeste 39 Sudeste 0 -- -- 60
2020-04-30 16:00:00 14.7 17 Sudeste 37 Sudeste 0 -- -- 60
2020-04-30 15:00:00 14.4 18 Sudeste 39 Sur 0 -- -- 59
2020-04-30 14:00:00 14.2 14 Sudeste 30 Sur 0 -- -- 59
2020-04-30 13:00:00 14 12 Sudeste 26 Sudeste 0 -- -- 60
2020-04-30 12:00:00 12.2 9 Sur 40 Sudeste 0 -- -- 62
2020-04-30 11:00:00 12.2 14 Este 43 Sudeste 0 -- -- 62
2020-04-30 10:00:00 11.8 17 Sudeste 38 Sudeste 0 -- -- 63
2020-04-30 09:00:00 11.3 22 Sudeste 58 Sudeste 0 -- -- 62
2020-04-30 08:00:00 11.1 23 Sudeste 45 Sudeste 0 -- -- 62
2020-04-30 07:00:00 10.9 20 Sudeste 40 Sudeste 0 -- -- 62
2020-04-30 06:00:00 10.8 17 Este 51 Sudeste 0 -- -- 64
2020-04-30 05:00:00 11.2 15 Sudeste 40 Sudeste 0 -- -- 61
2020-04-30 04:00:00 11.5 12 Sudeste 37 Sudeste 0 -- -- 58
2020-04-30 03:00:00 11.8 15 Sudeste 41 Sudeste 0 -- -- 58
2020-04-30 02:00:00 11.5 15 Este 48 Sudeste 0 -- -- 62
2020-04-30 01:00:00 12.2 23 Sudeste 54 Sudeste 0 -- -- 60
2020-04-30 00:00:00 12.4 21 Sudeste 46 Sudeste 0 -- -- 58
2020-04-29 23:00:00 12.7 15 Sudeste 45 Sudeste 0 -- -- 59
2020-04-29 22:00:00 13.1 17 Sudeste 84 Sudeste 0 -- -- 60
2020-04-29 21:00:00 13.5 21 Este 72 Sur 0 -- -- 62
2020-04-29 20:00:00 14 26 Sudeste 58 Sudeste 0 -- -- 64
2020-04-29 19:00:00 14.1 23 Sudeste 60 Sudeste 0 -- -- 64
2020-04-29 18:00:00 13.6 25 Sudeste 66 Sudeste 0 -- -- 69
2020-04-29 17:00:00 13.6 23 Sudeste 68 Sudeste 0 -- -- 70
2020-04-29 16:00:00 13.1 25 Sudeste 58 Sudeste 0 -- -- 70
2020-04-29 15:00:00 12.3 12 Sudeste 40 Sudeste 0 -- -- 71
2020-04-29 14:00:00 12.1 19 Sudeste 42 Sudoeste 0 -- -- 70
2020-04-29 13:00:00 13.2 11 Sur 32 Sudoeste 0 -- -- 64
2020-04-29 12:00:00 13.3 13 Sudeste 34 Sudeste 0 -- -- 66
2020-04-29 11:00:00 12.5 17 Sudeste 40 Sudeste 0 -- -- 68
2020-04-29 10:00:00 12.4 14 Sur 33 Sudeste 0 -- -- 66
2020-04-29 09:00:00 11.7 13 Sudeste 27 Sudeste 0 -- -- 65
2020-04-29 08:00:00 10.2 7 Sudeste 25 Sur 0 -- -- 70
2020-04-29 07:00:00 9.5 8 Sudeste 15 Sur 0 -- -- 68
2020-04-29 06:00:00 9.6 9 Sudeste 26 Sudeste 0 -- -- 66
2020-04-29 05:00:00 9 10 Sudeste 15 Sudeste 0 -- -- 68
2020-04-29 04:00:00 8.6 6 Sudeste 13 Sudeste 0 -- -- 77
2020-04-29 03:00:00 7.2 6 Sur 11 Sudeste 0 -- -- 86
2020-04-29 02:00:00 7.1 6 Sudeste 10 Sudeste 0 -- -- 93
2020-04-29 01:00:00 6.4 0 Calma 6 Nordeste 0 -- -- 94
2020-04-29 00:00:00 7.8 0 Calma 4 Sudeste 0 -- -- 95
2020-04-28 23:00:00 8 0 Calma 6 Noroeste 0 -- -- 93
2020-04-28 22:00:00 8.1 4 Noroeste 8 Noroeste 0 -- -- 92
2020-04-28 21:00:00 8.4 3 Noroeste 6 Noroeste 0 -- -- 92
2020-04-28 20:00:00 8.8 4 Noroeste 10 Noroeste 0 -- -- 89
2020-04-28 19:00:00 9 4 Noroeste 12 Noroeste 0 -- -- 88
2020-04-28 18:00:00 9.4 3 Noroeste 14 Noroeste 0 -- -- 89
2020-04-28 17:00:00 9.4 9 Norte 17 Noroeste 0.2 -- -- 89
2020-04-28 16:00:00 10.5 10 Norte 19 Noroeste 0 -- -- 81
2020-04-28 15:00:00 11 3 Sudoeste 15 Noroeste 0 -- -- 77
2020-04-28 14:00:00 11.5 9 Noroeste 20 Noroeste 0 -- -- 77
2020-04-28 13:00:00 11.7 7 Noroeste 17 Noroeste 0 -- -- 76
2020-04-28 12:00:00 11.1 9 Noroeste 15 Noroeste 0 -- -- 85
2020-04-28 11:00:00 9.6 8 Norte 18 Noroeste 0 -- -- 84
2020-04-28 10:00:00 9.4 6 Sur 12 Sur 0 -- -- 79
2020-04-28 09:00:00 7.3 4 Sudeste 10 Sur 0 -- -- 87
2020-04-28 08:00:00 6.2 4 Sudeste 11 Sudeste 0 -- -- 94
2020-04-28 07:00:00 7 4 Sudeste 6 Sudeste 0 -- -- 92
2020-04-28 06:00:00 7.2 3 Nordeste 8 Sudeste 0 -- -- 93
2020-04-28 05:00:00 7.1 0 Calma 5 Este 0 -- -- 94
2020-04-28 04:00:00 7.3 2 Sudeste 5 Sur 0 -- -- 91
2020-04-28 03:00:00 7.1 2 Nordeste 6 Este 0 -- -- 91
2020-04-28 02:00:00 7 3 Sudeste 10 Sudeste 0 -- -- 93
2020-04-28 01:00:00 7.8 4 Sur 9 Sudeste 0.2 -- -- 92
2020-04-28 00:00:00 7.6 6 Sudeste 9 Sudeste 0.4 -- -- 93
2020-04-27 23:00:00 7.7 2 Sur 21 Norte 1.4 -- -- 95
2020-04-27 22:00:00 8.3 8 Norte 19 Norte 1.4 -- -- 96
2020-04-27 21:00:00 8.8 3 Noroeste 6 Norte 0 -- -- 92
2020-04-27 20:00:00 9.6 0 Calma 6 Sudoeste 0 -- -- 90
2020-04-27 19:00:00 9.3 3 Sudeste 10 Noroeste 0.2 -- -- 90
2020-04-27 18:00:00 9.2 7 Noroeste 24 Noroeste 1.4 -- -- 95
2020-04-27 17:00:00 9.6 9 Noroeste 19 Norte 0.2 -- -- 88
2020-04-27 16:00:00 9.3 3 Noroeste 11 Noroeste 2 -- -- 95
2020-04-27 15:00:00 10.2 6 Noroeste 17 Noroeste 0.2 -- -- 94
2020-04-27 14:00:00 11.9 9 Noroeste 14 Noroeste 0 -- -- 85
2020-04-27 13:00:00 10.4 2 Oeste 9 Noroeste 0.4 -- -- 90
2020-04-27 12:00:00 10.5 8 Noroeste 14 Noroeste 0 -- -- 91
2020-04-27 11:00:00 10.2 3 Este 8 Norte 0 -- -- 91
2020-04-27 10:00:00 9.6 3 Norte 8 Norte 0 -- -- 99
2020-04-27 09:00:00 9.3 0 Calma 14 Norte 0 -- -- 100
2020-04-27 08:00:00 9.2 8 Norte 17 Norte 0.4 -- -- 100
2020-04-27 07:00:00 9.4 6 Norte 11 Norte 0 -- -- 100
2020-04-27 06:00:00 9.8 4 Noroeste 8 Noroeste 0 -- -- 100
2020-04-27 05:00:00 10 0 Calma 3 Norte 1.4 -- -- 100
2020-04-27 04:00:00 10 0 Calma 6 Norte 2.6 -- -- 100
2020-04-27 03:00:00 10.3 0 Calma 5 Noroeste 0.2 -- -- 100
2020-04-27 02:00:00 10.3 4 Norte 8 Norte 0.4 -- -- 100
2020-04-27 01:00:00 10.4 0 Calma 6 Noroeste 2 -- -- 100
2020-04-27 00:00:00 10.5 0 Calma 12 Norte 5.6 -- -- 100
2020-04-26 23:00:00 10.9 3 Noroeste 5 Noroeste 1.4 -- -- 100
2020-04-26 22:00:00 11 2 Noroeste 7 Oeste 0 -- -- 100
2020-04-26 21:00:00 11.3 3 Noroeste 7 Noroeste 0 -- -- 100
2020-04-26 20:00:00 11.8 4 Noroeste 10 Noroeste 0 -- -- 100
2020-04-26 19:00:00 12.3 0 Calma 10 Sudeste 5.4 -- -- 99
2020-04-26 18:00:00 12.3 5 Noroeste 16 Noroeste 17.4 -- -- 100
2020-04-26 17:00:00 13.4 5 Noroeste 10 Oeste 2.8 -- -- 97
2020-04-26 16:00:00 14.5 4 Noroeste 8 Noroeste 0 -- -- 91
2020-04-26 15:00:00 14 3 Noroeste 6 Oeste 0 -- -- 91
2020-04-26 14:00:00 12.7 0 Calma 4 Noroeste 0.4 -- -- 100
2020-04-26 13:00:00 11.7 4 Noroeste 8 Noroeste 0 -- -- 100
2020-04-26 12:00:00 11.6 5 Noroeste 9 Noroeste 0 -- -- 100
2020-04-26 11:00:00 11.6 3 Noroeste 5 Noroeste 0 -- -- 100
2020-04-26 10:00:00 -- 0 Calma -- -- 0 -- -- --
2020-04-26 09:00:00 11.1 3 Noroeste 5 Noroeste 0 -- -- 100
2020-04-26 08:00:00 11 3 Noroeste 5 Noroeste 0 -- -- 100
2020-04-26 07:00:00 11 2 Noroeste 4 Noroeste 0 -- -- 100
2020-04-26 06:00:00 11 0 Calma 5 Norte 0 -- -- 100
2020-04-26 05:00:00 11 3 Noroeste 4 Noroeste 0.2 -- -- 100
2020-04-26 04:00:00 11 2 Norte 6 Noroeste 0.4 -- -- 100
2020-04-26 03:00:00 11.1 3 Noroeste 8 Noroeste 0.2 -- -- 100
2020-04-26 02:00:00 11.1 3 Noroeste 7 Noroeste 0.2 -- -- 100
2020-04-26 01:00:00 11.1 4 Noroeste 8 Noroeste 0.2 -- -- 100
2020-04-26 00:00:00 11.3 0 Calma 6 Noroeste 0.2 -- -- 100